Terminal Aerodrome Forecast
Issued by NWS

Home | Current Version | Previous Version | Text Only | Print | Product List | Glossary Off
Versions: 1 2 3 4 5 6 7 8 9 10 11 12 13 14 15

000
FTUS43 KOAX 311100
TAFCDR
TAF
KCDR 311126Z 3112/0112 VRB04KT P6SM SKC
     FM311800 04008KT P6SM SKC
     FM010400 18007KT P6SM SCT250=

USA.gov is the U.S. government's official web portal to all federal, state and local government web resources and services.